Time;durP1;ratioP1;P1;durP2;ratioP2;P2;SDS_P1;SDS_P2;PMS_P1;PMS_P2;Temp;Humidity;BMP_temperature;BMP_pressure;BME280_temperature;BME280_humidity;BME280_pressure;Samples;Min_cycle;Max_cycle;Signal;HPM_P1;HPM_P2
2022/08/26 00:00:44;;;;;;;17.73;9.60;;;;;;;;;;5066178;28;20545;-56
2022/08/26 00:03:11;;;;;;;16.92;9.32;;;;;;;;;;5056089;28;20507;-56
2022/08/26 00:05:38;;;;;;;15.73;9.77;;;;;;;;;;5053394;28;20032;-55
2022/08/26 00:08:04;;;;;;;17.48;9.98;;;;;;;;;;5060799;28;20379;-55
2022/08/26 00:10:29;;;;;;;17.10;9.80;;;;;;;;;;5073052;28;20031;-56
2022/08/26 00:12:54;;;;;;;16.98;10.25;;;;;;;;;;5071752;28;20036;-56
2022/08/26 00:15:20;;;;;;;16.50;9.68;;;;;;;;;;5053921;28;20020;-56
2022/08/26 00:17:47;;;;;;;17.52;10.18;;;;;;;;;;5052749;28;20024;-55
2022/08/26 00:20:15;;;;;;;19.08;10.63;;;;;;;;;;5052908;28;20059;-55
2022/08/26 00:22:41;;;;;;;15.50;10.00;;;;;;;;;;5066908;28;20028;-55
2022/08/26 00:25:08;;;;;;;17.45;10.25;;;;;;;;;;5072824;28;20455;-56
2022/08/26 00:27:33;;;;;;;13.88;9.20;;;;;;;;;;5066298;28;20048;-56
2022/08/26 00:30:00;;;;;;;15.95;9.60;;;;;;;;;;5052133;28;20469;-55
2022/08/26 00:32:26;;;;;;;15.77;9.88;;;;;;;;;;5051731;28;20025;-56
2022/08/26 00:34:51;;;;;;;16.65;9.70;;;;;;;;;;5070668;28;20052;-55
2022/08/26 00:37:17;;;;;;;17.65;10.23;;;;;;;;;;5067133;28;20075;-55
2022/08/26 00:39:43;;;;;;;13.75;9.32;;;;;;;;;;5052705;28;20032;-56
2022/08/26 00:42:08;;;;;;;17.10;10.30;;;;;;;;;;5063386;28;20021;-55
2022/08/26 00:44:34;;;;;;;15.70;9.85;;;;;;;;;;5071809;28;20025;-55
2022/08/26 00:47:02;;;;;;;15.30;9.90;;;;;;;;;;5068016;28;20107;-55
2022/08/26 00:49:35;;;;;;;17.07;9.87;;;;;;;;;;5060621;28;20016;-55
2022/08/26 00:52:05;;;;;;;16.55;9.95;;;;;;;;;;5058026;28;20021;-55
2022/08/26 00:54:36;;;;;;;19.17;9.60;;;;;;;;;;5052154;28;20422;-56
2022/08/26 00:57:07;;;;;;;16.23;9.88;;;;;;;;;;5051838;28;20471;-55
2022/08/26 00:59:33;;;;;;;20.15;10.20;;;;;;;;;;5062057;28;20047;-55
2022/08/26 01:01:59;;;;;;;14.23;9.98;;;;;;;;;;5056830;28;20380;-55
2022/08/26 01:04:26;;;;;;;19.13;9.90;;;;;;;;;;5070197;28;20421;-55
2022/08/26 01:06:52;;;;;;;19.52;10.05;;;;;;;;;;5066043;28;20021;-55
2022/08/26 01:09:19;;;;;;;17.75;9.93;;;;;;;;;;5051908;28;20111;-55
2022/08/26 01:11:47;;;;;;;21.38;9.88;;;;;;;;;;5065026;28;20043;-55
2022/08/26 01:14:14;;;;;;;23.13;10.13;;;;;;;;;;5053392;28;20032;-55
2022/08/26 01:16:39;;;;;;;15.35;9.60;;;;;;;;;;5057681;28;20031;-56
2022/08/26 01:19:41;;;;;;;20.60;10.07;;;;;;;;;;5062247;28;20025;-55
2022/08/26 01:22:16;;;;;;;15.07;9.82;;;;;;;;;;5053407;28;20150;-55
2022/08/26 01:24:41;;;;;;;16.63;9.35;;;;;;;;;;5064370;28;20390;-55
2022/08/26 01:27:09;;;;;;;16.70;9.52;;;;;;;;;;5062663;28;20031;-55
2022/08/26 01:29:37;;;;;;;16.17;9.15;;;;;;;;;;5056124;28;20028;-55
2022/08/26 01:32:06;;;;;;;16.40;9.38;;;;;;;;;;5050748;28;20029;-55
2022/08/26 01:34:34;;;;;;;18.27;9.18;;;;;;;;;;5051850;28;20109;-55
2022/08/26 01:37:22;;;;;;;15.82;9.50;;;;;;;;;;5062854;28;20020;-55
2022/08/26 01:39:51;;;;;;;15.68;10.15;;;;;;;;;;5063306;28;20031;-55
2022/08/26 01:42:18;;;;;;;14.65;9.30;;;;;;;;;;5070741;28;20111;-55
2022/08/26 01:45:13;;;;;;;14.15;8.98;;;;;;;;;;5060675;28;20406;-55
2022/08/26 01:47:40;;;;;;;15.60;9.43;;;;;;;;;;5052707;28;20116;-55
2022/08/26 01:50:10;;;;;;;16.83;9.98;;;;;;;;;;5071204;28;20041;-56
2022/08/26 01:52:39;;;;;;;15.15;9.85;;;;;;;;;;5070839;28;20420;-55
2022/08/26 01:55:06;;;;;;;16.30;9.50;;;;;;;;;;5056772;28;20032;-55
2022/08/26 01:57:32;;;;;;;16.67;8.80;;;;;;;;;;5069785;28;20029;-55
2022/08/26 02:00:00;;;;;;;18.83;9.63;;;;;;;;;;5064630;28;20032;-55
2022/08/26 02:02:26;;;;;;;14.05;8.63;;;;;;;;;;5060771;28;20021;-55
2022/08/26 02:05:00;;;;;;;17.35;9.43;;;;;;;;;;5071057;28;20020;-55
2022/08/26 02:07:27;;;;;;;15.40;9.68;;;;;;;;;;5068578;28;20134;-56
2022/08/26 02:09:53;;;;;;;18.08;10.13;;;;;;;;;;5061544;28;20021;-56
2022/08/26 02:12:19;;;;;;;19.88;9.77;;;;;;;;;;5063901;28;20497;-55
2022/08/26 02:14:50;;;;;;;16.33;9.63;;;;;;;;;;5054822;28;20032;-55
2022/08/26 02:17:18;;;;;;;15.52;10.10;;;;;;;;;;5071433;28;20037;-55
2022/08/26 02:19:46;;;;;;;16.00;10.45;;;;;;;;;;5055031;28;20035;-55
2022/08/26 02:22:16;;;;;;;13.80;9.53;;;;;;;;;;5054342;28;20110;-55
2022/08/26 02:24:52;;;;;;;15.82;9.40;;;;;;;;;;5070368;28;20025;-55
2022/08/26 02:27:21;;;;;;;18.38;9.55;;;;;;;;;;5069172;28;20025;-55
2022/08/26 02:29:52;;;;;;;15.73;9.82;;;;;;;;;;5062996;28;20519;-54
2022/08/26 02:32:17;;;;;;;14.60;9.32;;;;;;;;;;5060967;28;20040;-54
2022/08/26 02:34:44;;;;;;;15.05;10.05;;;;;;;;;;5054732;28;20386;-54
2022/08/26 02:37:10;;;;;;;14.82;10.50;;;;;;;;;;5054894;28;20029;-55
2022/08/26 02:39:38;;;;;;;14.18;9.50;;;;;;;;;;5054654;28;20024;-55
2022/08/26 02:42:04;;;;;;;17.35;9.77;;;;;;;;;;5053903;28;20024;-56
2022/08/26 02:44:30;;;;;;;14.40;9.90;;;;;;;;;;5066534;28;20035;-56
2022/08/26 02:46:56;;;;;;;13.57;9.27;;;;;;;;;;5058722;28;20039;-56
2022/08/26 02:49:22;;;;;;;16.02;9.88;;;;;;;;;;5074581;28;20020;-56
2022/08/26 02:51:48;;;;;;;16.23;10.55;;;;;;;;;;5073629;28;20028;-56
2022/08/26 02:54:15;;;;;;;16.25;9.82;;;;;;;;;;5073861;28;20020;-56
2022/08/26 02:56:40;;;;;;;14.88;8.93;;;;;;;;;;5074323;28;20036;-56
2022/08/26 02:59:06;;;;;;;17.52;10.00;;;;;;;;;;5073940;28;20025;-56
2022/08/26 03:01:33;;;;;;;15.65;9.32;;;;;;;;;;5072659;28;20033;-56
2022/08/26 03:04:01;;;;;;;16.40;9.35;;;;;;;;;;5072946;28;20024;-56
2022/08/26 03:06:26;;;;;;;15.82;10.10;;;;;;;;;;5053954;28;20509;-56
2022/08/26 03:08:52;;;;;;;16.35;9.30;;;;;;;;;;5059470;28;20032;-56
2022/08/26 03:11:18;;;;;;;16.08;9.98;;;;;;;;;;5072737;28;20105;-56
2022/08/26 03:13:44;;;;;;;16.90;9.60;;;;;;;;;;5072266;28;20059;-56
2022/08/26 03:16:10;;;;;;;15.57;9.68;;;;;;;;;;5073007;28;20062;-56
2022/08/26 03:18:35;;;;;;;17.38;9.70;;;;;;;;;;5066706;28;20029;-56
2022/08/26 03:21:11;;;;;;;15.90;9.50;;;;;;;;;;5066982;28;20497;-56
2022/08/26 03:23:38;;;;;;;14.52;10.02;;;;;;;;;;5057301;28;20474;-57
2022/08/26 03:26:04;;;;;;;14.07;10.00;;;;;;;;;;5052834;28;20032;-56
2022/08/26 03:28:29;;;;;;;15.52;9.50;;;;;;;;;;5052287;28;20112;-56
2022/08/26 03:30:56;;;;;;;14.75;9.45;;;;;;;;;;5052641;28;20112;-56
2022/08/26 03:33:22;;;;;;;13.43;9.35;;;;;;;;;;5051844;28;20029;-56
2022/08/26 03:35:47;;;;;;;15.90;9.50;;;;;;;;;;5068695;28;20020;-56
2022/08/26 03:38:13;;;;;;;14.57;10.05;;;;;;;;;;5052799;28;20083;-56
2022/08/26 03:40:41;;;;;;;15.00;9.07;;;;;;;;;;5061926;28;20028;-56
2022/08/26 03:43:07;;;;;;;14.05;9.43;;;;;;;;;;5057544;28;20529;-56
2022/08/26 03:45:34;;;;;;;14.63;9.50;;;;;;;;;;5056146;28;20047;-56
2022/08/26 03:48:00;;;;;;;16.00;9.13;;;;;;;;;;5071049;28;20554;-56
2022/08/26 03:50:26;;;;;;;20.77;11.52;;;;;;;;;;5063466;28;20024;-56
2022/08/26 03:52:53;;;;;;;19.30;11.30;;;;;;;;;;5064104;28;20474;-56
2022/08/26 03:55:22;;;;;;;14.50;10.50;;;;;;;;;;5071851;28;20028;-56
2022/08/26 03:57:47;;;;;;;16.15;9.63;;;;;;;;;;5056484;28;20056;-56
2022/08/26 04:00:15;;;;;;;16.25;9.98;;;;;;;;;;5025279;28;1105233;-56
2022/08/26 04:02:44;;;;;;;13.82;9.18;;;;;;;;;;5052315;28;20521;-56
2022/08/26 04:05:13;;;;;;;18.55;10.30;;;;;;;;;;5053269;28;20109;-56
2022/08/26 04:07:41;;;;;;;15.77;10.38;;;;;;;;;;5057933;28;20028;-56
2022/08/26 04:10:07;;;;;;;15.95;10.38;;;;;;;;;;5069201;28;20021;-56
2022/08/26 04:12:32;;;;;;;15.85;10.15;;;;;;;;;;5059791;28;20112;-56
2022/08/26 04:14:58;;;;;;;13.45;9.38;;;;;;;;;;5052866;28;20111;-56
2022/08/26 04:17:25;;;;;;;15.95;11.30;;;;;;;;;;5068636;28;20067;-56
2022/08/26 04:19:52;;;;;;;18.75;12.00;;;;;;;;;;5060861;28;20482;-56
2022/08/26 04:22:18;;;;;;;21.88;11.85;;;;;;;;;;5072214;28;20401;-56
2022/08/26 04:24:44;;;;;;;21.55;13.23;;;;;;;;;;5072684;28;20020;-56
2022/08/26 04:27:09;;;;;;;16.67;10.20;;;;;;;;;;5072726;28;20482;-57
2022/08/26 04:29:35;;;;;;;11.95;9.13;;;;;;;;;;5064813;28;20067;-56
2022/08/26 04:32:01;;;;;;;14.63;9.45;;;;;;;;;;5050925;28;20033;-56
2022/08/26 04:34:27;;;;;;;14.32;9.30;;;;;;;;;;5067627;28;20032;-56
2022/08/26 04:36:54;;;;;;;16.17;9.50;;;;;;;;;;5072642;28;20031;-56
2022/08/26 04:39:20;;;;;;;15.25;9.20;;;;;;;;;;5072414;28;20028;-56
2022/08/26 04:41:47;;;;;;;15.50;10.00;;;;;;;;;;5071750;28;20611;-56
2022/08/26 04:44:13;;;;;;;13.38;8.98;;;;;;;;;;5067426;28;20033;-56
2022/08/26 04:46:39;;;;;;;14.48;9.98;;;;;;;;;;5053940;28;20037;-56
2022/08/26 04:49:07;;;;;;;17.55;9.38;;;;;;;;;;5052250;28;20028;-56
2022/08/26 04:51:34;;;;;;;12.85;9.32;;;;;;;;;;5061313;28;20032;-57
2022/08/26 04:54:00;;;;;;;13.95;9.32;;;;;;;;;;5057992;28;20453;-56
2022/08/26 04:56:29;;;;;;;13.63;9.43;;;;;;;;;;5052289;28;20025;-56
2022/08/26 04:58:54;;;;;;;13.65;9.80;;;;;;;;;;5051613;28;20422;-56
2022/08/26 05:01:20;;;;;;;12.23;8.73;;;;;;;;;;5064723;28;20089;-56
2022/08/26 05:03:46;;;;;;;13.13;8.98;;;;;;;;;;5071965;28;20032;-56
2022/08/26 05:06:12;;;;;;;11.73;9.32;;;;;;;;;;5054616;28;20032;-56
2022/08/26 05:08:38;;;;;;;14.02;9.15;;;;;;;;;;5056863;28;20063;-56
2022/08/26 05:11:05;;;;;;;12.35;9.10;;;;;;;;;;5071948;28;20048;-56
2022/08/26 05:13:31;;;;;;;13.75;8.98;;;;;;;;;;5070419;28;20016;-57
2022/08/26 05:16:03;;;;;;;14.20;9.43;;;;;;;;;;5071513;28;20177;-57
2022/08/26 05:18:29;;;;;;;13.30;9.15;;;;;;;;;;5057069;28;20028;-57
2022/08/26 05:20:54;;;;;;;15.93;9.43;;;;;;;;;;5071840;28;20025;-57
2022/08/26 05:23:21;;;;;;;17.95;9.63;;;;;;;;;;5058017;28;20033;-57
2022/08/26 05:25:47;;;;;;;12.35;9.18;;;;;;;;;;5068399;28;20025;-57
2022/08/26 05:28:15;;;;;;;15.20;9.30;;;;;;;;;;5066822;28;20021;-57
2022/08/26 05:30:41;;;;;;;14.82;9.45;;;;;;;;;;5060160;28;20116;-57
2022/08/26 05:33:07;;;;;;;12.70;9.32;;;;;;;;;;5058401;28;20175;-57
2022/08/26 05:35:34;;;;;;;15.57;9.27;;;;;;;;;;5051557;28;20048;-57
2022/08/26 05:38:01;;;;;;;14.32;9.35;;;;;;;;;;5051512;28;20029;-57
2022/08/26 05:40:27;;;;;;;13.05;9.05;;;;;;;;;;5051652;28;20021;-57
2022/08/26 05:42:52;;;;;;;14.30;8.85;;;;;;;;;;5061804;28;20145;-57
2022/08/26 05:45:18;;;;;;;12.70;8.60;;;;;;;;;;5055965;28;20047;-57
2022/08/26 05:47:44;;;;;;;13.23;9.13;;;;;;;;;;5070721;28;20078;-57
2022/08/26 05:50:10;;;;;;;14.07;8.80;;;;;;;;;;5064296;28;20025;-57
2022/08/26 05:52:36;;;;;;;18.75;9.52;;;;;;;;;;5061468;28;20038;-57
2022/08/26 05:55:03;;;;;;;17.48;9.02;;;;;;;;;;5056671;28;20025;-57
2022/08/26 05:57:28;;;;;;;14.27;9.55;;;;;;;;;;5067399;28;20035;-57
2022/08/26 05:59:55;;;;;;;14.38;8.77;;;;;;;;;;5050615;28;20024;-57
2022/08/26 06:02:20;;;;;;;13.20;8.80;;;;;;;;;;5050497;28;20021;-57
2022/08/26 06:04:46;;;;;;;16.95;8.80;;;;;;;;;;5065024;28;20020;-57
2022/08/26 06:07:11;;;;;;;13.88;9.50;;;;;;;;;;5069974;28;20452;-58
2022/08/26 06:09:37;;;;;;;11.90;8.68;;;;;;;;;;5056212;28;20500;-58
2022/08/26 06:12:02;;;;;;;16.75;9.40;;;;;;;;;;5061315;28;20398;-57
2022/08/26 06:14:29;;;;;;;12.38;9.95;;;;;;;;;;5063378;28;20064;-57
2022/08/26 06:16:55;;;;;;;16.15;9.88;;;;;;;;;;5070819;28;20482;-57
2022/08/26 06:19:21;;;;;;;14.85;9.48;;;;;;;;;;5055054;28;20058;-57
2022/08/26 06:21:48;;;;;;;13.18;9.75;;;;;;;;;;5070414;28;20032;-57
2022/08/26 06:27:02;;;;;;;15.48;9.48;;;;;;;;;;5052713;28;20398;-57
2022/08/26 06:29:30;;;;;;;16.48;9.98;;;;;;;;;;5049149;28;20425;-58
2022/08/26 06:31:56;;;;;;;15.38;9.77;;;;;;;;;;5060895;28;20021;-57
2022/08/26 06:34:23;;;;;;;11.95;9.35;;;;;;;;;;5056184;28;20478;-58
2022/08/26 06:36:49;;;;;;;16.90;9.60;;;;;;;;;;5051072;28;20047;-57
2022/08/26 06:39:16;;;;;;;24.60;13.18;;;;;;;;;;5054156;28;20047;-57
2022/08/26 06:41:43;;;;;;;53.90;24.25;;;;;;;;;;5050231;28;20471;-57
2022/08/26 06:44:11;;;;;;;58.72;25.90;;;;;;;;;;5059946;28;20033;-57
2022/08/26 06:46:37;;;;;;;47.50;22.25;;;;;;;;;;5054503;28;20028;-57
2022/08/26 06:49:03;;;;;;;30.88;16.95;;;;;;;;;;5065048;28;20032;-57
2022/08/26 06:51:32;;;;;;;26.67;14.85;;;;;;;;;;5059626;28;20031;-57
2022/08/26 06:53:59;;;;;;;23.70;13.52;;;;;;;;;;5057115;28;20383;-57
2022/08/26 06:56:27;;;;;;;22.05;11.93;;;;;;;;;;5070943;28;20103;-57
2022/08/26 06:58:52;;;;;;;18.42;12.30;;;;;;;;;;5059846;28;20028;-57
2022/08/26 07:01:24;;;;;;;18.65;12.40;;;;;;;;;;5063969;28;20029;-58
2022/08/26 07:03:51;;;;;;;18.95;12.23;;;;;;;;;;5054169;28;20478;-57
2022/08/26 07:06:18;;;;;;;18.27;12.45;;;;;;;;;;5070854;28;20100;-57
2022/08/26 07:08:51;;;;;;;18.33;12.27;;;;;;;;;;5054188;28;20025;-57
2022/08/26 07:11:18;;;;;;;15.70;11.38;;;;;;;;;;5064742;28;20402;-58
2022/08/26 07:13:44;;;;;;;18.80;11.27;;;;;;;;;;5073511;28;20097;-57
2022/08/26 07:16:13;;;;;;;17.00;11.40;;;;;;;;;;5071717;28;20175;-57
2022/08/26 07:18:41;;;;;;;13.75;10.70;;;;;;;;;;5054400;28;20036;-58
2022/08/26 07:21:10;;;;;;;16.42;10.90;;;;;;;;;;5054268;28;20052;-57
2022/08/26 07:23:36;;;;;;;14.82;10.73;;;;;;;;;;5053348;28;20029;-57
2022/08/26 07:26:07;;;;;;;16.17;10.55;;;;;;;;;;5072748;28;20028;-58
2022/08/26 07:28:32;;;;;;;16.42;10.88;;;;;;;;;;5066009;28;20394;-58
2022/08/26 07:31:02;;;;;;;15.98;10.48;;;;;;;;;;5062730;28;20033;-58
2022/08/26 07:33:28;;;;;;;14.35;10.20;;;;;;;;;;5053040;28;20025;-58
2022/08/26 07:35:53;;;;;;;15.32;10.73;;;;;;;;;;5053867;28;20398;-58
2022/08/26 07:38:19;;;;;;;16.75;10.85;;;;;;;;;;5053619;28;20029;-58
2022/08/26 07:40:44;;;;;;;18.95;11.30;;;;;;;;;;5064196;28;20306;-57
2022/08/26 07:43:09;;;;;;;16.35;10.10;;;;;;;;;;5059365;28;20547;-57
2022/08/26 07:45:35;;;;;;;13.90;9.98;;;;;;;;;;5067842;28;20028;-57
2022/08/26 07:48:01;;;;;;;15.43;10.35;;;;;;;;;;5073632;28;20036;-57
2022/08/26 07:50:26;;;;;;;12.60;9.73;;;;;;;;;;5064000;28;20071;-57
2022/08/26 07:52:52;;;;;;;16.02;10.35;;;;;;;;;;5052480;28;20474;-57
2022/08/26 07:55:17;;;;;;;14.27;9.95;;;;;;;;;;5053228;28;20098;-57
2022/08/26 07:57:43;;;;;;;16.33;10.57;;;;;;;;;;5053723;28;20076;-57
2022/08/26 08:00:11;;;;;;;13.23;9.27;;;;;;;;;;5052781;28;20056;-57
2022/08/26 08:02:37;;;;;;;14.23;9.50;;;;;;;;;;5065019;28;20031;-57
2022/08/26 08:05:03;;;;;;;17.23;10.20;;;;;;;;;;5056552;28;20473;-57
2022/08/26 08:07:28;;;;;;;13.10;8.60;;;;;;;;;;5068365;28;20033;-57
2022/08/26 08:09:54;;;;;;;13.32;9.93;;;;;;;;;;5052903;28;20025;-57
2022/08/26 08:12:19;;;;;;;13.40;9.52;;;;;;;;;;5063759;28;20078;-57
2022/08/26 08:14:46;;;;;;;13.82;9.93;;;;;;;;;;5072458;28;20473;-57
2022/08/26 08:17:13;;;;;;;13.00;9.90;;;;;;;;;;5056886;28;20090;-57
2022/08/26 08:19:39;;;;;;;14.85;9.95;;;;;;;;;;5065772;28;20033;-57
2022/08/26 08:22:06;;;;;;;13.23;9.93;;;;;;;;;;5063098;28;20103;-57
2022/08/26 08:24:34;;;;;;;14.52;9.65;;;;;;;;;;5072794;28;20028;-57
2022/08/26 08:27:00;;;;;;;14.70;9.30;;;;;;;;;;5056547;28;20044;-57
2022/08/26 08:29:28;;;;;;;14.20;9.63;;;;;;;;;;5065320;28;20158;-57
2022/08/26 08:31:57;;;;;;;13.10;8.73;;;;;;;;;;5051937;28;20104;-57
2022/08/26 08:34:23;;;;;;;;;;;;;;;;;;5068104;28;20470;-57
2022/08/26 08:36:49;;;;;;;15.13;9.25;;;;;;;;;;5069807;28;19909;-57
2022/08/26 08:39:15;;;;;;;12.80;8.75;;;;;;;;;;5052495;28;20021;-57
2022/08/26 08:41:43;;;;;;;12.23;8.48;;;;;;;;;;5062038;28;20054;-57
2022/08/26 08:44:17;;;;;;;11.13;7.80;;;;;;;;;;5071665;28;20055;-57
2022/08/26 08:46:44;;;;;;;10.10;8.30;;;;;;;;;;5052935;28;20134;-57
2022/08/26 08:49:12;;;;;;;11.77;7.90;;;;;;;;;;5052452;28;20074;-58
2022/08/26 08:51:59;;;;;;;10.38;8.60;;;;;;;;;;5051655;28;20398;-58
2022/08/26 08:54:28;;;;;;;10.52;8.35;;;;;;;;;;5070043;28;20392;-57
2022/08/26 08:57:11;;;;;;;10.95;7.57;;;;;;;;;;5072405;28;20020;-58
2022/08/26 08:59:44;;;;;;;9.85;8.02;;;;;;;;;;5059502;28;20439;-57
2022/08/26 09:02:27;;;;;;;9.65;7.15;;;;;;;;;;5052174;28;20096;-58
2022/08/26 09:05:04;;;;;;;9.77;7.18;;;;;;;;;;5064813;28;20155;-58
2022/08/26 09:07:35;;;;;;;8.70;7.28;;;;;;;;;;5064560;28;20505;-58
2022/08/26 09:10:22;;;;;;;10.02;6.80;;;;;;;;;;5055479;28;20025;-58
2022/08/26 09:12:49;;;;;;;10.02;7.00;;;;;;;;;;5070753;28;20154;-58
2022/08/26 09:15:23;;;;;;;8.52;6.95;;;;;;;;;;5071755;28;20073;-58
2022/08/26 09:18:01;;;;;;;8.30;7.38;;;;;;;;;;5055392;28;20100;-58
2022/08/26 09:20:53;;;;;;;8.07;6.88;;;;;;;;;;5066232;28;20017;-58
2022/08/26 09:23:18;;;;;;;9.52;6.90;;;;;;;;;;5049196;28;20037;-58
2022/08/26 09:25:45;;;;;;;11.68;7.38;;;;;;;;;;5066997;28;20027;-58
2022/08/26 09:28:17;;;;;;;9.20;6.80;;;;;;;;;;5066836;28;20115;-58
2022/08/26 09:30:44;;;;;;;8.10;6.85;;;;;;;;;;5051674;28;20100;-58
2022/08/26 09:33:16;;;;;;;9.40;6.35;;;;;;;;;;5063917;28;20474;-58
2022/08/26 09:35:46;;;;;;;9.82;6.43;;;;;;;;;;5053818;28;20025;-58
2022/08/26 09:38:34;;;;;;;8.88;7.00;;;;;;;;;;5057290;28;20017;-58
2022/08/26 09:41:07;;;;;;;7.85;7.05;;;;;;;;;;5060650;28;20393;-58
2022/08/26 09:43:33;;;;;;;12.15;8.30;;;;;;;;;;5052106;28;20389;-58
2022/08/26 09:46:26;;;;;;;8.40;7.53;;;;;;;;;;5051572;28;20078;-58
2022/08/26 09:48:51;;;;;;;9.25;7.65;;;;;;;;;;5051362;28;20024;-58
2022/08/26 09:51:22;;;;;;;10.75;7.60;;;;;;;;;;5050714;28;20021;-58
2022/08/26 09:53:59;;;;;;;10.38;7.93;;;;;;;;;;5056235;28;20131;-58
2022/08/26 09:56:33;;;;;;;11.27;7.53;;;;;;;;;;5071440;28;20370;-58
2022/08/26 09:59:00;;;;;;;9.45;7.75;;;;;;;;;;5055321;28;20406;-58
2022/08/26 10:01:32;;;;;;;11.23;7.57;;;;;;;;;;5050527;28;20028;-58
2022/08/26 10:04:22;;;;;;;8.43;6.70;;;;;;;;;;5058731;28;20127;-58
2022/08/26 10:07:06;;;;;;;10.65;7.65;;;;;;;;;;5071445;28;20082;-58
2022/08/26 10:09:35;;;;;;;9.98;6.95;;;;;;;;;;5071181;28;20021;-58
2022/08/26 10:12:09;;;;;;;7.85;6.60;;;;;;;;;;5060950;28;20021;-58
2022/08/26 10:14:38;;;;;;;10.38;7.13;;;;;;;;;;5065082;28;20024;-58
2022/08/26 10:17:21;;;;;;;10.98;7.45;;;;;;;;;;5051381;28;20043;-58
2022/08/26 10:19:53;;;;;;;10.07;7.10;;;;;;;;;;5050974;28;20032;-58
2022/08/26 10:22:30;;;;;;;9.38;7.50;;;;;;;;;;5063608;28;20066;-58
2022/08/26 10:25:00;;;;;;;12.55;7.70;;;;;;;;;;5068641;28;20044;-58
2022/08/26 10:27:44;;;;;;;7.68;6.93;;;;;;;;;;5057706;28;20390;-58
2022/08/26 10:30:13;;;;;;;11.85;7.40;;;;;;;;;;5060158;28;20460;-58
2022/08/26 10:32:48;;;;;;;10.13;7.00;;;;;;;;;;5054257;28;20114;-58
2022/08/26 10:35:15;;;;;;;8.65;7.47;;;;;;;;;;5053633;28;20021;-58
2022/08/26 10:37:55;;;;;;;11.98;7.70;;;;;;;;;;5053671;28;20505;-58
2022/08/26 10:40:26;;;;;;;8.90;7.97;;;;;;;;;;5070822;28;20055;-58
2022/08/26 10:42:57;;;;;;;8.85;7.50;;;;;;;;;;5073299;28;20029;-58
2022/08/26 10:45:27;;;;;;;10.82;7.95;;;;;;;;;;5074667;28;20020;-58
2022/08/26 10:47:58;;;;;;;12.50;7.93;;;;;;;;;;5069876;28;20286;-58
2022/08/26 10:50:30;;;;;;;12.77;8.15;;;;;;;;;;5074730;28;20028;-58
2022/08/26 10:53:33;;;;;;;21.20;8.63;;;;;;;;;;5066349;28;20063;-58
2022/08/26 10:56:04;;;;;;;14.77;8.10;;;;;;;;;;5069554;28;20488;-58
2022/08/26 10:58:35;;;;;;;12.00;8.02;;;;;;;;;;5074177;28;20108;-58
2022/08/26 11:04:13;;;;;;;16.98;7.68;;;;;;;;;;5074487;28;20513;-59
2022/08/26 11:06:39;;;;;;;14.25;7.93;;;;;;;;;;5074661;28;20028;-58
2022/08/26 11:09:07;;;;;;;21.92;7.90;;;;;;;;;;5074241;28;20501;-58
2022/08/26 11:11:39;;;;;;;14.83;7.97;;;;;;;;;;5059818;28;20082;-58
2022/08/26 11:14:04;;;;;;;14.75;8.20;;;;;;;;;;5069700;28;20346;-58
2022/08/26 11:16:43;;;;;;;20.98;8.18;;;;;;;;;;5054201;28;20041;-58
2022/08/26 11:19:29;;;;;;;19.35;11.23;;;;;;;;;;5065678;28;20043;-59
2022/08/26 11:22:04;;;;;;;14.98;8.75;;;;;;;;;;5073211;28;20036;-58
2022/08/26 11:24:52;;;;;;;15.73;8.73;;;;;;;;;;5066945;28;20032;-59
2022/08/26 11:27:37;;;;;;;22.05;8.82;;;;;;;;;;5067892;28;20028;-58
2022/08/26 11:30:03;;;;;;;14.15;7.93;;;;;;;;;;5056469;28;20048;-58
2022/08/26 11:32:40;;;;;;;16.25;7.47;;;;;;;;;;5060705;28;20390;-58
2022/08/26 11:35:34;;;;;;;14.70;7.55;;;;;;;;;;5060597;28;20029;-58
2022/08/26 11:38:11;;;;;;;13.13;7.80;;;;;;;;;;5061706;28;20029;-58
2022/08/26 11:40:37;;;;;;;18.15;8.45;;;;;;;;;;5063534;28;20044;-58
2022/08/26 11:43:07;;;;;;;17.27;7.82;;;;;;;;;;5058679;28;20031;-57
2022/08/26 11:45:35;;;;;;;17.35;8.48;;;;;;;;;;5057480;28;20044;-58
2022/08/26 11:48:27;;;;;;;18.38;8.27;;;;;;;;;;5073711;28;20039;-58
2022/08/26 11:51:23;;;;;;;17.95;8.57;;;;;;;;;;5073602;28;20051;-58
2022/08/26 11:53:49;;;;;;;24.48;8.35;;;;;;;;;;5068036;28;20626;-58
2022/08/26 11:56:32;;;;;;;19.17;8.65;;;;;;;;;;5053562;28;20471;-58
2022/08/26 11:59:01;;;;;;;15.35;7.10;;;;;;;;;;5053092;28;20411;-58
2022/08/26 12:01:34;;;;;;;11.07;6.57;;;;;;;;;;5052512;28;20406;-58
2022/08/26 12:04:01;;;;;;;11.95;6.60;;;;;;;;;;5061727;28;20025;-58
2022/08/26 12:06:33;;;;;;;11.48;6.10;;;;;;;;;;5061217;28;20039;-58
2022/08/26 12:09:01;;;;;;;10.10;6.90;;;;;;;;;;5053969;28;20040;-58
2022/08/26 12:11:31;;;;;;;15.38;7.28;;;;;;;;;;5072421;28;20031;-59
2022/08/26 12:14:18;;;;;;;11.45;6.60;;;;;;;;;;5063310;28;20430;-58
2022/08/26 12:16:44;;;;;;;12.45;6.75;;;;;;;;;;5053040;28;20043;-58
2022/08/26 12:19:32;;;;;;;9.32;6.22;;;;;;;;;;5056682;28;20100;-59
2022/08/26 12:22:33;;;;;;;13.35;6.53;;;;;;;;;;5072018;28;20027;-58
2022/08/26 12:25:05;;;;;;;11.60;6.97;;;;;;;;;;5070714;28;20065;-58
2022/08/26 12:27:40;;;;;;;14.50;7.43;;;;;;;;;;5062583;28;20048;-58
2022/08/26 12:30:15;;;;;;;11.30;7.13;;;;;;;;;;5072311;28;20024;-58
2022/08/26 12:32:47;;;;;;;14.00;7.55;;;;;;;;;;5054039;28;20139;-59
2022/08/26 12:35:16;;;;;;;17.80;7.15;;;;;;;;;;5052740;28;20024;-58
2022/08/26 12:37:47;;;;;;;15.43;6.95;;;;;;;;;;5063170;28;20024;-59
2022/08/26 12:40:38;;;;;;;13.43;6.78;;;;;;;;;;5057704;28;20033;-58
2022/08/26 12:43:05;;;;;;;10.27;6.97;;;;;;;;;;5057241;28;20044;-58
2022/08/26 12:45:41;;;;;;;13.03;6.77;;;;;;;;;;5062378;28;20029;-59
2022/08/26 12:48:25;;;;;;;11.18;6.68;;;;;;;;;;5067967;28;20551;-58
2022/08/26 12:50:52;;;;;;;12.77;6.22;;;;;;;;;;5067004;28;20059;-59
2022/08/26 12:53:23;;;;;;;10.98;6.32;;;;;;;;;;5050576;28;20025;-59
2022/08/26 12:55:52;;;;;;;16.40;6.63;;;;;;;;;;5068108;28;20024;-59
2022/08/26 12:58:26;;;;;;;9.25;6.30;;;;;;;;;;5069552;28;20032;-59
2022/08/26 13:00:56;;;;;;;12.18;5.68;;;;;;;;;;5052265;28;20047;-59
2022/08/26 13:03:33;;;;;;;8.75;5.75;;;;;;;;;;5062398;28;20020;-59
2022/08/26 13:06:12;;;;;;;12.00;6.00;;;;;;;;;;5055297;28;20025;-59
2022/08/26 13:08:40;;;;;;;9.20;5.82;;;;;;;;;;5057928;28;20266;-58
2022/08/26 13:11:12;;;;;;;9.43;5.38;;;;;;;;;;5061886;28;20024;-58
2022/08/26 13:13:39;;;;;;;14.98;6.35;;;;;;;;;;5065575;28;20035;-59
2022/08/26 13:16:05;;;;;;;9.50;5.88;;;;;;;;;;5053227;28;20055;-59
2022/08/26 13:18:31;;;;;;;7.45;5.82;;;;;;;;;;5063095;28;20029;-59
2022/08/26 13:20:56;;;;;;;11.38;6.50;;;;;;;;;;5061944;28;20432;-59
2022/08/26 13:23:23;;;;;;;13.73;6.72;;;;;;;;;;5070847;28;20474;-59
2022/08/26 13:25:50;;;;;;;15.52;6.30;;;;;;;;;;5070005;28;20028;-59
2022/08/26 13:28:15;;;;;;;11.32;6.47;;;;;;;;;;5051299;28;20021;-59
2022/08/26 13:30:44;;;;;;;9.73;6.00;;;;;;;;;;5061005;28;20037;-59
2022/08/26 13:33:11;;;;;;;10.45;5.78;;;;;;;;;;5056936;28;20025;-59
2022/08/26 13:35:37;;;;;;;11.73;5.82;;;;;;;;;;5067803;28;20086;-59
2022/08/26 13:38:02;;;;;;;13.75;6.43;;;;;;;;;;5056852;28;20486;-59
2022/08/26 13:40:28;;;;;;;10.68;5.93;;;;;;;;;;5071555;28;20062;-59
2022/08/26 13:42:53;;;;;;;12.98;6.65;;;;;;;;;;5057518;28;20029;-59
2022/08/26 13:45:19;;;;;;;12.20;5.22;;;;;;;;;;5070404;28;20044;-59
2022/08/26 13:47:44;;;;;;;10.88;5.35;;;;;;;;;;5055654;28;20035;-59
2022/08/26 13:50:10;;;;;;;12.27;5.38;;;;;;;;;;5063390;28;20024;-59
2022/08/26 13:52:35;;;;;;;13.00;5.30;;;;;;;;;;5050323;28;20032;-59
2022/08/26 13:55:01;;;;;;;9.80;4.82;;;;;;;;;;5051326;28;20032;-59
2022/08/26 13:57:28;;;;;;;6.30;4.57;;;;;;;;;;5067721;28;20029;-57
2022/08/26 13:59:55;;;;;;;11.48;5.20;;;;;;;;;;5054939;28;20029;-58
2022/08/26 14:02:21;;;;;;;11.43;5.40;;;;;;;;;;5061617;28;20142;-58
2022/08/26 14:04:47;;;;;;;9.93;5.60;;;;;;;;;;5074892;28;20032;-58
2022/08/26 14:07:13;;;;;;;11.55;6.07;;;;;;;;;;5072724;28;20043;-58
2022/08/26 14:09:38;;;;;;;10.07;6.43;;;;;;;;;;5055387;28;20100;-58
2022/08/26 14:12:04;;;;;;;13.60;5.95;;;;;;;;;;5064556;28;20035;-58
2022/08/26 14:14:29;;;;;;;11.23;5.93;;;;;;;;;;5060929;28;20028;-58
2022/08/26 14:16:54;;;;;;;10.40;5.60;;;;;;;;;;5056732;28;20036;-58
2022/08/26 14:19:20;;;;;;;11.00;6.63;;;;;;;;;;5069786;28;20021;-58
2022/08/26 14:21:46;;;;;;;14.45;6.47;;;;;;;;;;5054414;28;20029;-57
2022/08/26 14:24:11;;;;;;;14.82;6.15;;;;;;;;;;5054953;28;20017;-58
2022/08/26 14:26:36;;;;;;;16.27;6.20;;;;;;;;;;5055070;28;20017;-58
2022/08/26 14:29:02;;;;;;;12.18;6.40;;;;;;;;;;5058800;28;20473;-58
2022/08/26 14:31:30;;;;;;;9.40;5.90;;;;;;;;;;5074312;28;20501;-58
2022/08/26 14:34:02;;;;;;;10.95;6.28;;;;;;;;;;5074671;28;20047;-58
2022/08/26 14:36:27;;;;;;;15.20;6.72;;;;;;;;;;5074970;28;20021;-58
2022/08/26 14:38:55;;;;;;;11.35;6.97;;;;;;;;;;5070465;28;20474;-57
2022/08/26 14:41:23;;;;;;;12.23;7.03;;;;;;;;;;5054219;28;20025;-58
2022/08/26 14:43:56;;;;;;;11.38;7.53;;;;;;;;;;5060940;28;20257;-58
2022/08/26 14:46:22;;;;;;;17.17;7.32;;;;;;;;;;5057230;28;20071;-58